Time;durP1;ratioP1;P1;durP2;ratioP2;P2;SDS_P1;SDS_P2;PMS_P1;PMS_P2;Temp;Humidity;BMP_temperature;BMP_pressure;BME280_temperature;BME280_humidity;BME280_pressure;Samples;Min_cycle;Max_cycle;Signal;HPM_P1;HPM_P2
2023/07/14 00:01:16;;;;;;;2.88;1.70;;;23.60;53.50;;;;;;5007191;28;20105;-67
2023/07/14 00:03:42;;;;;;;3.15;1.85;;;23.60;53.60;;;;;;5005760;28;20040;-68
2023/07/14 00:06:11;;;;;;;3.10;1.55;;;23.60;53.60;;;;;;5005536;28;20409;-67
2023/07/14 00:08:39;;;;;;;2.63;1.50;;;23.60;53.70;;;;;;5006592;28;20049;-67
2023/07/14 00:11:10;;;;;;;1.88;1.50;;;23.60;53.80;;;;;;5006669;28;20057;-68
2023/07/14 00:13:36;;;;;;;1.50;1.27;;;23.60;53.80;;;;;;5006351;28;20053;-66
2023/07/14 00:16:01;;;;;;;2.38;1.38;;;23.60;53.80;;;;;;5006526;28;20429;-67
2023/07/14 00:18:27;;;;;;;2.35;1.50;;;23.60;53.90;;;;;;5006895;28;20252;-67
2023/07/14 00:20:53;;;;;;;2.50;1.90;;;23.60;53.90;;;;;;5001923;28;20022;-67
2023/07/14 00:23:18;;;;;;;3.08;1.58;;;23.50;53.90;;;;;;5006271;28;20132;-63
2023/07/14 00:25:45;;;;;;;3.50;1.50;;;23.50;53.90;;;;;;5006285;28;20034;-67
2023/07/14 00:28:18;;;;;;;2.50;1.40;;;23.60;54.00;;;;;;5006168;28;20029;-63
2023/07/14 00:30:45;;;;;;;2.15;1.60;;;23.50;53.90;;;;;;5006472;28;20124;-65
2023/07/14 00:33:16;;;;;;;2.85;1.73;;;23.50;54.00;;;;;;5006612;28;20033;-67
2023/07/14 00:35:42;;;;;;;2.67;1.55;;;23.50;54.00;;;;;;5006499;28;20034;-67
2023/07/14 00:38:09;;;;;;;2.88;1.70;;;23.50;53.90;;;;;;5007473;28;20089;-67
2023/07/14 00:40:43;;;;;;;3.30;1.42;;;23.50;53.90;;;;;;5007159;28;20070;-67
2023/07/14 00:43:18;;;;;;;3.03;1.55;;;23.50;53.90;;;;;;5006990;28;20076;-67
2023/07/14 00:45:49;;;;;;;4.97;1.67;;;23.50;53.80;;;;;;5005675;28;20041;-67
2023/07/14 00:48:19;;;;;;;2.42;1.58;;;23.50;54.00;;;;;;5005728;28;20559;-67
2023/07/14 00:50:54;;;;;;;1.85;1.48;;;23.50;54.00;;;;;;5005455;28;20037;-67
2023/07/14 00:53:35;;;;;;;3.35;1.70;;;23.50;54.00;;;;;;5005465;28;20044;-67
2023/07/14 00:56:12;;;;;;;2.00;1.35;;;23.40;54.00;;;;;;5002116;28;20116;-67
2023/07/14 00:58:41;;;;;;;4.18;1.90;;;23.40;54.00;;;;;;5004042;28;20160;-64
2023/07/14 01:01:12;;;;;;;2.47;1.70;;;23.40;54.00;;;;;;5005328;28;20080;-65
2023/07/14 01:03:40;;;;;;;2.42;1.52;;;23.40;54.10;;;;;;4994409;28;20034;-66
2023/07/14 01:06:27;;;;;;;1.98;1.52;;;23.40;54.10;;;;;;5002107;28;20374;-66
2023/07/14 01:08:59;;;;;;;2.28;1.90;;;23.40;54.00;;;;;;5004711;28;20080;-66
2023/07/14 01:11:32;;;;;;;2.17;1.45;;;23.40;54.00;;;;;;5005023;28;20037;-67
2023/07/14 01:14:03;;;;;;;2.90;1.88;;;23.40;54.00;;;;;;5001580;28;20575;-66
2023/07/14 01:16:31;;;;;;;4.00;2.00;;;23.40;54.10;;;;;;5005134;28;21607;-66
2023/07/14 01:18:58;;;;;;;2.17;1.50;;;23.40;54.10;;;;;;4999235;28;20536;-66
2023/07/14 01:21:24;;;;;;;3.53;1.73;;;23.40;54.20;;;;;;5005414;28;20040;-65
2023/07/14 01:24:09;;;;;;;3.08;1.83;;;23.40;54.60;;;;;;5005762;28;20026;-66
2023/07/14 01:27:03;;;;;;;3.90;1.65;;;23.40;54.30;;;;;;5002970;28;20125;-66
2023/07/14 01:29:31;;;;;;;1.85;1.30;;;23.40;54.30;;;;;;5005006;28;20045;-66
2023/07/14 01:31:57;;;;;;;1.92;1.67;;;23.40;54.30;;;;;;5005476;28;20037;-66
2023/07/14 01:34:23;;;;;;;2.35;1.50;;;23.40;54.30;;;;;;5005257;28;20030;-66
2023/07/14 01:36:49;;;;;;;2.45;1.70;;;23.40;54.40;;;;;;5004630;28;20072;-66
2023/07/14 01:39:16;;;;;;;1.92;1.48;;;23.40;54.40;;;;;;5005391;28;20034;-67
2023/07/14 01:41:41;;;;;;;3.17;1.60;;;23.40;54.50;;;;;;5005541;28;20038;-66
2023/07/14 01:44:15;;;;;;;2.33;1.45;;;23.40;54.60;;;;;;5005888;28;20045;-66
2023/07/14 01:46:40;;;;;;;2.60;1.50;;;23.30;54.60;;;;;;4997793;28;20133;-66
2023/07/14 01:49:29;;;;;;;1.85;1.45;;;23.30;54.60;;;;;;5006006;28;20121;-66
2023/07/14 01:51:59;;;;;;;2.67;1.60;;;23.30;54.60;;;;;;5001027;28;20103;-66
2023/07/14 01:54:35;;;;;;;2.22;1.33;;;23.40;54.60;;;;;;5005861;28;20036;-67
2023/07/14 01:57:04;;;;;;;2.90;1.30;;;23.30;54.60;;;;;;5002135;28;20026;-65
2023/07/14 01:59:34;;;;;;;4.18;1.70;;;23.40;54.70;;;;;;5005758;28;20445;-66
2023/07/14 02:02:01;;;;;;;2.55;1.83;;;23.30;54.70;;;;;;5001853;28;20608;-66
2023/07/14 02:04:32;;;;;;;2.60;1.58;;;23.30;54.70;;;;;;5006906;28;20045;-66
2023/07/14 02:07:01;;;;;;;3.00;1.48;;;23.30;54.90;;;;;;5005513;28;20029;-65
2023/07/14 02:09:28;;;;;;;3.30;1.50;;;23.30;54.80;;;;;;5009123;28;20068;-67
2023/07/14 02:11:58;;;;;;;2.63;1.45;;;23.20;54.80;;;;;;5004301;28;20030;-68
2023/07/14 02:14:27;;;;;;;2.17;1.60;;;23.20;54.80;;;;;;5004771;28;20413;-68
2023/07/14 02:16:58;;;;;;;2.25;1.42;;;23.20;54.80;;;;;;5004835;28;20100;-67
2023/07/14 02:19:25;;;;;;;2.38;1.50;;;23.30;54.90;;;;;;5009494;28;20033;-64
2023/07/14 02:21:54;;;;;;;2.17;1.40;;;23.20;54.80;;;;;;5009175;28;20117;-67
2023/07/14 02:24:22;;;;;;;3.53;2.30;;;23.20;54.80;;;;;;5008789;28;20172;-67
2023/07/14 02:26:56;;;;;;;3.40;2.13;;;23.20;54.80;;;;;;5009208;28;20443;-67
2023/07/14 02:29:22;;;;;;;1.95;1.48;;;23.20;54.80;;;;;;5009305;28;20191;-61
2023/07/14 02:32:10;;;;;;;3.13;1.63;;;23.20;54.80;;;;;;5008838;28;20386;-67
2023/07/14 02:34:43;;;;;;;3.03;1.50;;;23.20;54.80;;;;;;4998624;28;20040;-67
2023/07/14 02:37:41;;;;;;;2.78;1.77;;;23.20;54.90;;;;;;4998744;28;20452;-67
2023/07/14 02:40:08;;;;;;;2.55;1.48;;;23.20;54.90;;;;;;5009465;28;20034;-67
2023/07/14 02:42:38;;;;;;;2.25;1.35;;;23.20;55.20;;;;;;5007702;28;20034;-67
2023/07/14 02:45:05;;;;;;;2.90;2.03;;;23.20;54.80;;;;;;5009176;28;20069;-67
2023/07/14 02:47:35;;;;;;;2.08;1.73;;;23.20;54.90;;;;;;5009240;28;20038;-64
2023/07/14 02:50:01;;;;;;;1.48;1.35;;;23.10;54.80;;;;;;5008934;28;20535;-67
2023/07/14 02:52:27;;;;;;;2.33;1.60;;;23.20;54.80;;;;;;5008647;28;20026;-67
2023/07/14 02:54:52;;;;;;;2.03;1.48;;;23.10;54.80;;;;;;5008648;28;20030;-67
2023/07/14 02:57:18;;;;;;;1.77;1.30;;;23.10;54.90;;;;;;5008168;28;20065;-67
2023/07/14 02:59:43;;;;;;;2.92;1.55;;;23.10;54.80;;;;;;5007934;28;20523;-67
2023/07/14 03:02:09;;;;;;;3.45;1.50;;;23.10;54.90;;;;;;5003606;28;20048;-68
2023/07/14 03:04:34;;;;;;;1.85;1.58;;;23.10;54.90;;;;;;5007356;28;20049;-68
2023/07/14 03:07:01;;;;;;;3.13;1.50;;;23.10;54.90;;;;;;5007763;28;20060;-67
2023/07/14 03:09:27;;;;;;;3.25;1.40;;;23.10;54.90;;;;;;5007714;28;20030;-67
2023/07/14 03:11:52;;;;;;;2.92;1.70;;;23.00;54.90;;;;;;5007469;28;20411;-67
2023/07/14 03:14:18;;;;;;;2.00;1.67;;;23.10;54.90;;;;;;5001283;28;20500;-67
2023/07/14 03:16:44;;;;;;;2.60;1.67;;;23.00;54.90;;;;;;5007114;28;20368;-67
2023/07/14 03:19:09;;;;;;;2.60;2.20;;;23.00;54.80;;;;;;5008064;28;20033;-63
2023/07/14 03:21:35;;;;;;;2.00;1.38;;;23.00;54.80;;;;;;5003030;28;20033;-67
2023/07/14 03:24:01;;;;;;;3.33;1.45;;;23.00;54.80;;;;;;5006205;28;20041;-67
2023/07/14 03:26:26;;;;;;;4.90;2.03;;;23.00;54.70;;;;;;5007072;28;20035;-66
2023/07/14 03:28:51;;;;;;;1.83;1.50;;;23.00;54.70;;;;;;5007397;28;20504;-67
2023/07/14 03:31:17;;;;;;;2.33;1.30;;;23.00;54.70;;;;;;5006358;28;20745;-68
2023/07/14 03:33:43;;;;;;;4.03;1.80;;;23.00;54.70;;;;;;5007043;28;20022;-67
2023/07/14 03:36:12;;;;;;;2.00;1.75;;;23.00;54.70;;;;;;5007614;28;20026;-67
2023/07/14 03:38:41;;;;;;;2.65;1.58;;;23.00;54.70;;;;;;5007046;28;20124;-67
2023/07/14 03:41:06;;;;;;;2.30;1.65;;;23.00;54.70;;;;;;5007462;28;20439;-67
2023/07/14 03:43:32;;;;;;;2.78;1.30;;;22.90;54.50;;;;;;5006961;28;20168;-67
2023/07/14 03:45:57;;;;;;;2.53;1.65;;;22.90;54.70;;;;;;5005477;28;20129;-66
2023/07/14 03:48:23;;;;;;;1.88;1.50;;;23.00;54.70;;;;;;5006328;28;20511;-65
2023/07/14 03:50:48;;;;;;;3.00;2.08;;;23.00;54.70;;;;;;5007291;28;20072;-67
2023/07/14 03:53:14;;;;;;;3.17;1.95;;;22.90;54.70;;;;;;5006881;28;20056;-67
2023/07/14 03:55:40;;;;;;;2.65;1.70;;;22.90;54.70;;;;;;5005646;28;20049;-67
2023/07/14 03:58:06;;;;;;;4.70;2.22;;;22.90;54.70;;;;;;5006702;28;20033;-67
2023/07/14 04:00:32;;;;;;;2.13;1.50;;;22.90;54.90;;;;;;5006222;28;20675;-68
2023/07/14 04:02:58;;;;;;;5.10;2.28;;;22.90;54.90;;;;;;5003545;28;20026;-66
2023/07/14 04:05:26;;;;;;;1.75;1.40;;;22.90;55.00;;;;;;4995672;28;20029;-67
2023/07/14 04:07:52;;;;;;;2.25;1.70;;;22.90;55.00;;;;;;5003674;28;20393;-67
2023/07/14 04:10:18;;;;;;;1.80;1.45;;;22.90;55.00;;;;;;5003323;28;20033;-64
2023/07/14 04:12:47;;;;;;;3.47;1.80;;;22.90;55.10;;;;;;5006394;28;20187;-65
2023/07/14 04:15:12;;;;;;;1.80;1.70;;;22.90;55.10;;;;;;5006988;28;20057;-66
2023/07/14 04:17:38;;;;;;;3.15;1.65;;;22.90;55.00;;;;;;5006256;28;20057;-66
2023/07/14 04:20:05;;;;;;;1.65;1.55;;;22.90;55.00;;;;;;5002157;28;20543;-64
2023/07/14 04:22:31;;;;;;;2.28;1.85;;;22.90;55.10;;;;;;5005019;28;20120;-64
2023/07/14 04:24:58;;;;;;;2.78;1.70;;;22.90;55.10;;;;;;5006946;28;20427;-67
2023/07/14 04:27:24;;;;;;;1.75;1.33;;;22.90;55.20;;;;;;5005207;28;20026;-67
2023/07/14 04:29:50;;;;;;;1.67;1.33;;;22.90;55.20;;;;;;5002753;28;20037;-64
2023/07/14 04:32:15;;;;;;;2.20;1.33;;;22.90;55.30;;;;;;5007206;28;20038;-68
2023/07/14 04:34:41;;;;;;;2.15;1.70;;;22.90;55.30;;;;;;5004056;28;20057;-65
2023/07/14 04:37:07;;;;;;;2.38;1.90;;;22.90;55.40;;;;;;5007715;28;20396;-67
2023/07/14 04:39:32;;;;;;;3.20;1.60;;;22.90;55.40;;;;;;5006616;28;20038;-67
2023/07/14 04:41:58;;;;;;;2.85;1.75;;;22.90;55.40;;;;;;5006791;28;20032;-67
2023/07/14 04:44:24;;;;;;;3.75;1.50;;;22.90;55.60;;;;;;5006317;28;20053;-67
2023/07/14 04:46:50;;;;;;;2.65;1.65;;;22.90;55.50;;;;;;5006240;28;20602;-63
2023/07/14 04:49:16;;;;;;;2.97;1.67;;;22.90;55.50;;;;;;5007288;28;20045;-68
2023/07/14 04:51:42;;;;;;;2.00;1.73;;;23.00;55.50;;;;;;5006316;28;20037;-64
2023/07/14 04:54:08;;;;;;;2.92;1.73;;;23.00;55.40;;;;;;5004782;28;20045;-67
2023/07/14 04:56:34;;;;;;;3.00;1.83;;;23.00;55.30;;;;;;5005267;28;20034;-67
2023/07/14 04:59:00;;;;;;;3.28;1.90;;;23.00;55.20;;;;;;5005544;28;20408;-62
2023/07/14 05:01:28;;;;;;;2.13;1.63;;;23.00;55.20;;;;;;5005499;28;20034;-68
2023/07/14 05:03:54;;;;;;;2.80;1.80;;;23.00;55.10;;;;;;5005971;28;20057;-67
2023/07/14 05:06:19;;;;;;;3.67;2.00;;;23.00;55.20;;;;;;5005612;28;20061;-67
2023/07/14 05:08:45;;;;;;;3.78;1.90;;;23.10;55.20;;;;;;5005659;28;20099;-64
2023/07/14 05:11:11;;;;;;;3.95;2.25;;;23.10;55.30;;;;;;5004805;28;20290;-61
2023/07/14 05:13:36;;;;;;;2.22;1.85;;;23.10;55.30;;;;;;5005195;28;20128;-63
2023/07/14 05:16:02;;;;;;;3.00;1.63;;;23.10;55.30;;;;;;5005406;28;20036;-67
2023/07/14 05:18:27;;;;;;;2.60;2.10;;;23.10;55.50;;;;;;5005238;28;20113;-65
2023/07/14 05:20:59;;;;;;;3.30;2.72;;;23.10;55.50;;;;;;5005046;28;20033;-67
2023/07/14 05:23:26;;;;;;;2.45;1.70;;;23.20;55.60;;;;;;5005600;28;20398;-63
2023/07/14 05:25:52;;;;;;;3.30;1.95;;;23.20;55.70;;;;;;5004391;28;20034;-67
2023/07/14 05:28:18;;;;;;;2.28;1.60;;;23.20;55.70;;;;;;5005163;28;20487;-67
2023/07/14 05:30:43;;;;;;;3.83;2.22;;;23.20;55.70;;;;;;5004849;28;20301;-61
2023/07/14 05:33:12;;;;;;;3.55;1.88;;;23.20;55.70;;;;;;5005056;28;20046;-67
2023/07/14 05:35:38;;;;;;;3.50;1.65;;;23.20;55.70;;;;;;5004585;28;20037;-67
2023/07/14 05:38:03;;;;;;;3.83;1.85;;;23.20;55.70;;;;;;5005297;28;20048;-67
2023/07/14 05:40:29;;;;;;;2.63;1.70;;;23.20;56.30;;;;;;5004595;28;20501;-67
2023/07/14 05:42:54;;;;;;;2.95;1.77;;;23.20;55.70;;;;;;5004752;28;20053;-64
2023/07/14 05:45:20;;;;;;;2.58;1.70;;;23.20;55.70;;;;;;5004708;28;20042;-62
2023/07/14 05:47:47;;;;;;;3.15;1.50;;;23.20;55.80;;;;;;5004998;28;20033;-62
2023/07/14 05:50:13;;;;;;;1.73;1.50;;;23.20;55.80;;;;;;5005151;28;20052;-66
2023/07/14 05:52:39;;;;;;;2.30;1.85;;;23.20;55.80;;;;;;5005252;28;20045;-67
2023/07/14 05:55:05;;;;;;;3.35;1.75;;;23.20;55.80;;;;;;5005089;28;20284;-67
2023/07/14 05:57:32;;;;;;;3.20;1.80;;;23.20;55.80;;;;;;5004987;28;20064;-67
2023/07/14 05:59:57;;;;;;;3.75;1.80;;;23.20;55.80;;;;;;5005167;28;20065;-65
2023/07/14 06:02:23;;;;;;;1.70;1.48;;;23.20;55.70;;;;;;5005551;28;20338;-65
2023/07/14 06:04:49;;;;;;;2.92;1.77;;;23.20;55.50;;;;;;5004999;28;20030;-65
2023/07/14 06:07:15;;;;;;;2.53;1.90;;;23.30;55.40;;;;;;5005801;28;20026;-67
2023/07/14 06:09:41;;;;;;;2.22;1.50;;;23.20;55.30;;;;;;5004782;28;20396;-61
2023/07/14 06:12:09;;;;;;;3.22;1.80;;;23.20;55.20;;;;;;5005025;28;20091;-63
2023/07/14 06:14:36;;;;;;;3.75;1.83;;;23.20;55.20;;;;;;5005138;28;20038;-66
2023/07/14 06:17:04;;;;;;;3.00;1.63;;;23.30;55.20;;;;;;5005142;28;20034;-67
2023/07/14 06:19:29;;;;;;;6.13;1.83;;;23.30;55.20;;;;;;5005563;28;20030;-64
2023/07/14 06:21:56;;;;;;;2.17;1.70;;;23.30;55.20;;;;;;5005315;28;20121;-68
2023/07/14 06:24:23;;;;;;;3.72;1.88;;;23.30;55.10;;;;;;5005915;28;20037;-65
2023/07/14 06:26:48;;;;;;;2.58;1.60;;;23.30;55.10;;;;;;5005838;28;20105;-65
2023/07/14 06:29:14;;;;;;;2.42;1.50;;;23.20;55.10;;;;;;5006048;28;20124;-67
2023/07/14 06:31:40;;;;;;;4.20;1.83;;;23.30;55.10;;;;;;5004462;28;20030;-66
2023/07/14 06:34:06;;;;;;;3.33;1.95;;;23.30;55.20;;;;;;5005122;28;20038;-64
2023/07/14 06:36:31;;;;;;;2.25;1.60;;;23.30;55.30;;;;;;5004157;28;20111;-67
2023/07/14 06:38:57;;;;;;;4.03;1.70;;;23.20;55.20;;;;;;5004870;28;20037;-67
2023/07/14 06:41:22;;;;;;;3.28;2.17;;;23.20;55.30;;;;;;5004960;28;20146;-64
2023/07/14 06:43:48;;;;;;;3.45;1.80;;;23.30;55.40;;;;;;5005057;28;20034;-65
2023/07/14 06:46:13;;;;;;;3.13;1.45;;;23.20;55.30;;;;;;5004537;28;20283;-63
2023/07/14 06:48:39;;;;;;;4.50;2.22;;;23.30;55.30;;;;;;5004399;28;20054;-66
2023/07/14 06:51:04;;;;;;;4.22;1.58;;;23.30;55.30;;;;;;5006509;28;20030;-67
2023/07/14 06:53:30;;;;;;;1.98;1.52;;;23.30;55.40;;;;;;5008607;28;20042;-65
2023/07/14 06:55:56;;;;;;;3.53;1.70;;;23.20;55.40;;;;;;5008450;28;20026;-68
2023/07/14 06:58:21;;;;;;;4.38;1.58;;;23.20;55.30;;;;;;5008470;28;20172;-67
2023/07/14 07:00:47;;;;;;;4.07;1.70;;;23.20;55.30;;;;;;5008608;28;20058;-65
2023/07/14 07:03:12;;;;;;;3.35;1.63;;;23.20;55.30;;;;;;5009012;28;20037;-67
2023/07/14 07:05:42;;;;;;;3.72;1.67;;;23.30;55.30;;;;;;5008732;28;22284;-67
2023/07/14 07:08:10;;;;;;;2.60;1.42;;;23.20;55.10;;;;;;5003201;28;20030;-64
2023/07/14 07:10:36;;;;;;;2.72;1.77;;;23.20;54.90;;;;;;5007054;28;20041;-65
2023/07/14 07:13:02;;;;;;;4.20;1.60;;;23.20;54.90;;;;;;5008508;28;20534;-67
2023/07/14 07:15:27;;;;;;;3.45;1.40;;;23.20;55.10;;;;;;5008693;28;20108;-65
2023/07/14 07:17:53;;;;;;;5.18;1.77;;;23.20;55.20;;;;;;5008330;28;20033;-65
2023/07/14 07:20:19;;;;;;;3.35;1.48;;;23.20;54.90;;;;;;5008678;28;20053;-67
2023/07/14 07:22:45;;;;;;;6.95;1.65;;;23.30;54.80;;;;;;5007327;28;20065;-67
2023/07/14 07:25:11;;;;;;;3.45;1.50;;;23.30;54.80;;;;;;5008338;28;20053;-62
2023/07/14 07:27:37;;;;;;;3.00;1.88;;;23.30;54.80;;;;;;5008015;28;20045;-67
2023/07/14 07:30:03;;;;;;;1.75;1.40;;;23.30;54.90;;;;;;5007526;28;20433;-66
2023/07/14 07:32:29;;;;;;;4.68;1.73;;;23.30;54.80;;;;;;5008357;28;20081;-67
2023/07/14 07:34:59;;;;;;;2.47;1.55;;;23.30;54.70;;;;;;5008016;28;20049;-64
2023/07/14 07:37:25;;;;;;;3.38;1.40;;;23.30;54.50;;;;;;5007982;28;20451;-64
2023/07/14 07:39:53;;;;;;;3.17;1.40;;;23.30;54.50;;;;;;5007796;28;20501;-65
2023/07/14 07:42:19;;;;;;;2.38;1.75;;;23.30;55.20;;;;;;5008826;28;20026;-64
2023/07/14 07:44:44;;;;;;;1.67;1.42;;;23.30;54.50;;;;;;5007921;28;20034;-66
2023/07/14 07:47:10;;;;;;;2.28;1.40;;;23.30;54.30;;;;;;5012889;28;20037;-67
2023/07/14 07:49:36;;;;;;;3.78;1.95;;;23.30;53.90;;;;;;5008257;28;20102;-67
2023/07/14 07:52:03;;;;;;;4.10;1.77;;;23.20;53.70;;;;;;5008285;28;20172;-67
2023/07/14 07:54:28;;;;;;;1.90;1.30;;;23.20;53.70;;;;;;5008086;28;20029;-67
2023/07/14 07:56:54;;;;;;;2.63;1.40;;;23.20;53.60;;;;;;5008129;28;20053;-67
2023/07/14 07:59:19;;;;;;;2.38;1.13;;;23.20;53.60;;;;;;5009067;28;20034;-67
2023/07/14 08:01:48;;;;;;;4.82;1.52;;;23.30;53.80;;;;;;5007370;28;20029;-68
2023/07/14 08:04:15;;;;;;;3.13;1.50;;;23.20;54.00;;;;;;5007087;28;20030;-67
2023/07/14 08:06:40;;;;;;;2.80;1.50;;;23.20;54.20;;;;;;5005948;28;20070;-67
2023/07/14 08:09:06;;;;;;;3.20;1.30;;;23.20;54.00;;;;;;5006864;28;20057;-67
2023/07/14 08:11:33;;;;;;;4.18;1.35;;;23.20;53.80;;;;;;5007266;28;20104;-67
2023/07/14 08:14:01;;;;;;;1.58;1.25;;;23.20;53.60;;;;;;5005945;28;20040;-67
2023/07/14 08:16:27;;;;;;;2.22;1.33;;;23.20;53.30;;;;;;5006719;28;20447;-66
2023/07/14 08:18:53;;;;;;;3.30;1.30;;;23.20;53.00;;;;;;5004669;28;20444;-67
2023/07/14 08:21:19;;;;;;;2.22;1.35;;;23.20;53.00;;;;;;5006909;28;20037;-66
2023/07/14 08:23:44;;;;;;;2.25;1.45;;;23.30;53.30;;;;;;5006353;28;20499;-65
2023/07/14 08:26:11;;;;;;;3.33;1.42;;;23.30;53.20;;;;;;5006647;28;20104;-67
2023/07/14 08:28:36;;;;;;;2.00;1.13;;;23.20;53.30;;;;;;5006007;28;20125;-66
2023/07/14 08:31:09;;;;;;;1.40;1.30;;;23.20;53.00;;;;;;5006069;28;20345;-67
2023/07/14 08:33:36;;;;;;;1.63;1.02;;;23.20;52.80;;;;;;5006303;28;20133;-67
2023/07/14 08:36:03;;;;;;;2.75;1.30;;;23.30;53.10;;;;;;5005953;28;20104;-67
2023/07/14 08:38:33;;;;;;;3.60;1.33;;;23.30;53.20;;;;;;5006244;28;20029;-67
2023/07/14 08:41:20;;;;;;;1.83;1.38;;;23.20;52.90;;;;;;5006330;28;20512;-67
2023/07/14 08:43:58;;;;;;;2.38;1.38;;;23.30;52.80;;;;;;5006422;28;20034;-67
2023/07/14 08:47:01;;;;;;;2.22;1.45;;;23.20;52.60;;;;;;5005590;28;20574;-66
2023/07/14 08:49:32;;;;;;;1.35;1.25;;;23.20;52.80;;;;;;5004493;28;20094;-67
2023/07/14 08:52:17;;;;;;;2.78;1.23;;;23.20;53.60;;;;;;5004254;28;20058;-67
2023/07/14 08:54:47;;;;;;;1.55;1.23;;;23.20;53.90;;;;;;5005008;28;20037;-65
2023/07/14 08:57:19;;;;;;;2.15;1.52;;;23.30;53.70;;;;;;4996123;28;20033;-67
2023/07/14 08:59:45;;;;;;;1.42;1.20;;;23.20;53.70;;;;;;5005826;28;20026;-67
2023/07/14 09:02:33;;;;;;;2.00;1.20;;;23.20;53.70;;;;;;5006191;28;20037;-66
2023/07/14 09:05:03;;;;;;;2.95;1.30;;;23.30;53.80;;;;;;5004070;28;20065;-66
2023/07/14 09:07:29;;;;;;;1.45;1.15;;;23.20;54.10;;;;;;5006325;28;20405;-66
2023/07/14 09:09:55;;;;;;;1.58;1.02;;;23.20;54.10;;;;;;5003960;28;20045;-67
2023/07/14 09:12:40;;;;;;;1.58;1.25;;;23.20;53.90;;;;;;5006445;28;20485;-67
2023/07/14 09:15:16;;;;;;;3.95;1.70;;;23.20;53.90;;;;;;5004696;28;20053;-66
2023/07/14 09:18:00;;;;;;;;;;;23.30;53.00;;;;;;5006795;28;20439;-67
2023/07/14 09:20:28;;;;;;;3.65;1.42;;;23.20;52.90;;;;;;5001561;28;20337;-67
2023/07/14 09:23:05;;;;;;;1.63;1.48;;;23.20;52.60;;;;;;5003566;28;20500;-66
2023/07/14 09:25:45;;;;;;;2.17;1.48;;;23.20;52.90;;;;;;5005756;28;20560;-67
2023/07/14 09:28:37;;;;;;;2.00;1.40;;;23.30;53.10;;;;;;5005752;28;20072;-67
2023/07/14 09:31:37;;;;;;;1.98;1.30;;;23.30;53.10;;;;;;5004511;28;20564;-67
2023/07/14 09:34:08;;;;;;;3.65;1.45;;;23.30;53.20;;;;;;5008158;28;20354;-67
2023/07/14 09:36:38;;;;;;;1.88;1.20;;;23.30;53.10;;;;;;5006135;28;20401;-67
2023/07/14 09:39:08;;;;;;;1.85;1.40;;;23.30;53.30;;;;;;5005102;28;20027;-67
2023/07/14 09:41:35;;;;;;;1.90;1.27;;;23.30;53.30;;;;;;5006007;28;20037;-67
2023/07/14 09:44:01;;;;;;;1.98;1.60;;;23.30;53.40;;;;;;5005547;28;20053;-66
2023/07/14 09:46:37;;;;;;;3.10;1.70;;;23.30;53.80;;;;;;5005000;28;20489;-66
2023/07/14 09:49:14;;;;;;;2.22;1.55;;;23.30;51.50;;;;;;5003704;28;20029;-67
2023/07/14 09:51:58;;;;;;;3.45;1.50;;;23.20;52.90;;;;;;5005297;28;20038;-66
2023/07/14 09:54:24;;;;;;;3.80;1.70;;;23.20;52.90;;;;;;5001555;28;20030;-66
2023/07/14 09:56:49;;;;;;;2.40;1.67;;;23.30;52.90;;;;;;5004837;28;20045;-66
2023/07/14 09:59:22;;;;;;;1.65;1.27;;;23.30;52.70;;;;;;5005067;28;20056;-66
2023/07/14 10:01:53;;;;;;;2.38;1.25;;;23.40;52.90;;;;;;5005216;28;20042;-67
2023/07/14 10:04:19;;;;;;;1.75;1.30;;;23.40;52.70;;;;;;5004911;28;20515;-65
2023/07/14 10:06:47;;;;;;;3.13;1.48;;;23.40;52.70;;;;;;5004920;28;20038;-67
2023/07/14 10:09:16;;;;;;;2.30;1.30;;;23.40;52.70;;;;;;5001699;28;20088;-67
2023/07/14 10:11:43;;;;;;;2.45;1.30;;;23.40;52.70;;;;;;5004491;28;20382;-67
2023/07/14 10:14:27;;;;;;;1.63;1.50;;;23.40;52.70;;;;;;5004694;28;20030;-67
2023/07/14 10:16:56;;;;;;;2.65;1.63;;;23.40;52.60;;;;;;5001213;28;20269;-67
2023/07/14 10:19:31;;;;;;;2.05;1.25;;;23.40;52.70;;;;;;5002861;28;20424;-66
2023/07/14 10:22:02;;;;;;;1.48;1.10;;;23.30;52.70;;;;;;5004763;28;20036;-66
2023/07/14 10:24:30;;;;;;;3.22;1.70;;;23.30;52.60;;;;;;5003472;28;20396;-66
2023/07/14 10:27:01;;;;;;;1.60;1.42;;;23.30;52.80;;;;;;5007481;28;20073;-66
2023/07/14 10:29:41;;;;;;;2.28;1.70;;;23.40;52.70;;;;;;5004799;28;20038;-67
2023/07/14 10:32:21;;;;;;;1.73;1.48;;;23.40;52.70;;;;;;5008450;28;20030;-66
2023/07/14 10:34:57;;;;;;;3.10;1.52;;;23.40;52.70;;;;;;5008618;28;20552;-66
2023/07/14 10:37:29;;;;;;;2.08;1.50;;;23.40;52.70;;;;;;5008949;28;20026;-67
2023/07/14 10:40:11;;;;;;;1.90;1.52;;;23.40;52.70;;;;;;5008077;28;20536;-66
2023/07/14 10:42:43;;;;;;;1.98;1.60;;;23.40;52.70;;;;;;5005895;28;20628;-67
2023/07/14 10:45:13;;;;;;;3.25;1.40;;;23.40;52.70;;;;;;5007347;28;20119;-67
2023/07/14 10:48:04;;;;;;;2.58;1.27;;;23.50;52.80;;;;;;4998456;28;20040;-67
2023/07/14 10:50:39;;;;;;;1.73;1.38;;;23.50;52.60;;;;;;5004145;28;20046;-67
2023/07/14 10:53:36;;;;;;;1.55;1.08;;;23.50;52.60;;;;;;5007625;28;20034;-67
2023/07/14 10:56:09;;;;;;;2.47;1.90;;;23.50;52.60;;;;;;5007236;28;20524;-67
2023/07/14 10:58:43;;;;;;;3.17;1.60;;;23.50;52.60;;;;;;5004423;28;20113;-65
2023/07/14 11:01:20;;;;;;;2.05;1.42;;;23.50;52.60;;;;;;5007909;28;20125;-66
2023/07/14 11:03:57;;;;;;;2.45;1.75;;;23.50;52.60;;;;;;5008872;28;20568;-67
2023/07/14 11:06:34;;;;;;;2.65;1.65;;;23.50;52.60;;;;;;4993610;28;20053;-65
2023/07/14 11:08:59;;;;;;;1.80;1.30;;;23.50;52.70;;;;;;5004915;28;20036;-67
2023/07/14 11:11:55;;;;;;;1.90;1.42;;;23.40;52.70;;;;;;5001391;28;20125;-67
2023/07/14 11:14:40;;;;;;;1.92;1.50;;;23.50;52.80;;;;;;5006903;28;20700;-66
2023/07/14 11:17:26;;;;;;;1.98;1.38;;;23.50;52.90;;;;;;5004550;28;20034;-66
2023/07/14 11:19:59;;;;;;;3.40;1.45;;;23.40;52.90;;;;;;5007706;28;20026;-66
2023/07/14 11:22:42;;;;;;;1.77;1.40;;;23.40;52.60;;;;;;5007606;28;20025;-67
2023/07/14 11:25:40;;;;;;;2.20;1.58;;;23.40;52.50;;;;;;5006434;28;20041;-67
2023/07/14 11:28:41;;;;;;;3.53;1.73;;;23.40;52.00;;;;;;5006983;28;20037;-66
2023/07/14 11:31:27;;;;;;;2.33;2.00;;;23.40;49.70;;;;;;4975788;28;20026;-66
2023/07/14 11:34:27;;;;;;;3.35;1.90;;;23.40;48.20;;;;;;5002962;28;20038;-67
2023/07/14 11:37:22;;;;;;;3.38;1.98;;;23.40;49.80;;;;;;4992079;28;20030;-67
2023/07/14 11:39:58;;;;;;;3.15;1.98;;;23.40;48.40;;;;;;5006758;28;20029;-67
2023/07/14 11:42:31;;;;;;;2.13;1.88;;;23.40;49.70;;;;;;5007278;28;20033;-66
2023/07/14 11:45:00;;;;;;;3.55;2.05;;;23.50;49.50;;;;;;5005742;28;20030;-67
2023/07/14 11:47:37;;;;;;;3.28;2.03;;;23.50;50.40;;;;;;5007536;28;20064;-67
2023/07/14 11:50:18;;;;;;;3.85;1.80;;;23.50;50.90;;;;;;5007123;28;20068;-67
2023/07/14 11:53:00;;;;;;;2.28;1.50;;;23.40;51.60;;;;;;5007623;28;20057;-67
2023/07/14 11:55:27;;;;;;;3.38;1.88;;;23.40;51.50;;;;;;4996790;28;20471;-67
2023/07/14 11:58:12;;;;;;;5.32;2.75;;;23.50;49.60;;;;;;5003322;28;20040;-66
2023/07/14 12:00:44;;;;;;;3.05;1.98;;;23.50;48.70;;;;;;5005726;28;20066;-67
2023/07/14 12:03:46;;;;;;;2.35;1.92;;;23.50;50.60;;;;;;5009566;28;20034;-67
2023/07/14 12:06:18;;;;;;;3.03;2.22;;;23.40;50.40;;;;;;4967402;28;20365;-67
2023/07/14 12:09:03;;;;;;;2.28;1.80;;;23.50;51.50;;;;;;5006857;28;20038;-67
2023/07/14 12:11:42;;;;;;;2.33;1.60;;;23.50;51.20;;;;;;4993447;28;20105;-66
2023/07/14 12:14:35;;;;;;;2.22;2.03;;;23.50;50.80;;;;;;5006701;28;20036;-67
2023/07/14 12:17:03;;;;;;;3.50;2.42;;;23.50;51.00;;;;;;4998613;28;20018;-67
2023/07/14 12:19:50;;;;;;;2.28;2.13;;;23.40;51.40;;;;;;5006318;28;20034;-66
2023/07/14 12:22:37;;;;;;;4.70;2.50;;;23.40;50.70;;;;;;5002415;28;20028;-67
2023/07/14 12:25:17;;;;;;;2.90;2.30;;;23.40;51.20;;;;;;5001489;28;20030;-64
2023/07/14 12:27:52;;;;;;;5.18;2.78;;;23.40;50.50;;;;;;5002825;28;20042;-66
2023/07/14 12:30:24;;;;;;;4.22;2.70;;;23.50;50.40;;;;;;5006133;28;20108;-67
2023/07/14 12:33:17;;;;;;;3.70;2.83;;;23.40;50.10;;;;;;5006232;28;20040;-67
2023/07/14 12:35:43;;;;;;;3.00;2.67;;;23.40;50.50;;;;;;5003337;28;20050;-67
2023/07/14 12:38:20;;;;;;;4.38;2.80;;;23.50;50.20;;;;;;5006639;28;20040;-66
2023/07/14 12:40:49;;;;;;;2.85;2.50;;;23.40;50.80;;;;;;5006529;28;20552;-67
2023/07/14 12:43:26;;;;;;;4.03;2.70;;;23.50;50.80;;;;;;5006338;28;20290;-67
2023/07/14 12:45:56;;;;;;;4.85;3.10;;;23.50;51.00;;;;;;4999200;28;20116;-66
2023/07/14 12:48:32;;;;;;;2.88;2.30;;;23.50;50.90;;;;;;5005535;28;20037;-66
2023/07/14 12:51:03;;;;;;;4.20;2.75;;;23.50;50.90;;;;;;5006275;28;20453;-68
2023/07/14 12:53:31;;;;;;;3.35;2.53;;;23.60;50.80;;;;;;5004679;28;20032;-67
2023/07/14 12:56:03;;;;;;;5.80;2.80;;;23.60;50.90;;;;;;5006417;28;20033;-67
2023/07/14 12:58:29;;;;;;;3.03;2.42;;;23.60;50.90;;;;;;4999738;28;20057;-66
2023/07/14 13:00:55;;;;;;;4.82;2.85;;;23.60;50.60;;;;;;5002981;28;20038;-67
2023/07/14 13:03:21;;;;;;;2.67;2.28;;;23.60;50.80;;;;;;4991615;28;20327;-67
2023/07/14 13:05:48;;;;;;;3.55;2.70;;;23.60;50.50;;;;;;4999412;28;20057;-67